Terminal Aerodrome Forecast
Issued by NWS Knoxville/Tri Cities, TN

Home | Current Version | Previous Version | Text Only | Print | Product List | Glossary On
Versions: 1 2 3 4 5 6 7 8 9 10 11 12 13 14
000
FTUS44 KMRX 312320
TAFTRI
TAF
KTRI 312320Z 0100/0124 VRB03KT P6SM VCSH SCT060
     FM010100 27004KT P6SM SCT100
      TEMPO 0109/0112 5SM BR
     FM011800 33010KT P6SM VCSH BKN050=

USA.gov is the U.S. government's official web portal to all federal, state and local government web resources and services.